createdAt,value
2017-10-28T00:00:47.530Z,2.50
2017-10-28T00:03:17.532Z,2.00
2017-10-28T00:05:46.836Z,2.47
2017-10-28T00:08:16.054Z,2.13
2017-10-28T00:10:45.354Z,2.43
2017-10-28T00:13:14.614Z,2.07
2017-10-28T00:15:44.759Z,1.97
2017-10-28T00:18:14.793Z,2.00
2017-10-28T00:20:44.026Z,1.47
2017-10-28T00:23:13.292Z,1.80
2017-10-28T00:25:43.399Z,1.87
2017-10-28T00:28:12.766Z,1.80
2017-10-28T00:30:47.378Z,1.70
2017-10-28T00:33:22.150Z,1.97
2017-10-28T00:35:56.904Z,1.93
2017-10-28T00:38:26.187Z,1.50
2017-10-28T00:40:55.659Z,1.73
2017-10-28T00:43:24.962Z,1.70
2017-10-28T00:45:54.215Z,1.97
2017-10-28T00:48:23.511Z,2.40
2017-10-28T00:50:53.532Z,1.90
2017-10-28T00:53:22.784Z,1.90
2017-10-28T00:55:52.210Z,2.43
2017-10-28T00:58:21.675Z,2.20
2017-10-28T01:00:51.019Z,2.50
2017-10-28T01:03:21.033Z,2.53
2017-10-28T01:05:50.310Z,2.60
2017-10-28T01:08:19.542Z,2.53
2017-10-28T01:10:49.174Z,2.50
2017-10-28T01:13:18.414Z,3.00
2017-10-28T01:15:48.544Z,3.27
2017-10-28T01:18:17.803Z,3.70
2017-10-28T01:20:47.177Z,2.60
2017-10-28T01:23:16.423Z,2.30
2017-10-28T01:25:45.675Z,2.70
2017-10-28T01:28:14.902Z,3.20
2017-10-28T01:30:44.171Z,3.13
2017-10-28T01:33:13.422Z,3.10
2017-10-28T01:35:42.680Z,2.70
2017-10-28T01:38:12.734Z,2.20
2017-10-28T01:40:42.034Z,2.47
2017-10-28T01:43:11.361Z,2.60
2017-10-28T01:45:40.600Z,2.90
2017-10-28T01:48:09.873Z,2.43
2017-10-28T01:50:39.142Z,2.63
2017-10-28T01:53:08.392Z,3.20
2017-10-28T01:55:37.666Z,2.67
2017-10-28T01:58:07.012Z,2.60
2017-10-28T02:00:37.033Z,3.07
2017-10-28T02:03:06.295Z,2.40
2017-10-28T02:05:35.752Z,2.80
2017-10-28T02:08:04.994Z,4.07
2017-10-28T02:10:34.257Z,3.57
2017-10-28T02:13:03.542Z,3.50
2017-10-28T02:15:32.929Z,3.97
2017-10-28T02:18:02.951Z,3.47
2017-10-28T02:20:32.202Z,3.50
2017-10-28T02:23:01.472Z,3.47
2017-10-28T02:25:30.791Z,3.30
2017-10-28T02:28:00.069Z,2.70
2017-10-28T02:30:30.077Z,3.50
2017-10-28T02:32:59.385Z,3.57
2017-10-28T02:35:29.494Z,2.60
2017-10-28T02:37:58.918Z,2.93
2017-10-28T02:40:28.946Z,2.70
2017-10-28T02:42:58.214Z,2.73
2017-10-28T02:45:27.471Z,2.73
2017-10-28T02:47:56.739Z,3.10
2017-10-28T02:50:26.019Z,3.60
2017-10-28T02:52:56.038Z,3.67
2017-10-28T02:55:25.314Z,4.00
2017-10-28T02:57:54.552Z,3.13
2017-10-28T03:00:24.070Z,3.50
2017-10-28T03:02:53.494Z,2.53
2017-10-28T03:05:22.759Z,4.10
2017-10-28T03:07:52.050Z,2.70
2017-10-28T03:10:22.099Z,3.20
2017-10-28T03:12:51.360Z,3.00
2017-10-28T03:15:20.830Z,2.47
2017-10-28T03:17:50.242Z,3.43
2017-10-28T03:20:19.499Z,2.90
2017-10-28T03:22:49.187Z,3.27
2017-10-28T03:25:18.495Z,3.43
2017-10-28T03:27:48.529Z,5.90
2017-10-28T03:30:17.860Z,2.70
2017-10-28T03:32:47.129Z,2.50
2017-10-28T03:35:16.363Z,3.40
2017-10-28T03:37:45.810Z,2.80
2017-10-28T03:40:15.847Z,3.47
2017-10-28T03:42:45.147Z,2.73
2017-10-28T03:45:14.438Z,3.03
2017-10-28T03:47:43.832Z,3.17
2017-10-28T03:50:13.111Z,3.20
2017-10-28T03:52:42.343Z,3.97
2017-10-28T03:55:11.606Z,4.40
2017-10-28T03:57:40.844Z,3.13
2017-10-28T04:00:10.265Z,4.40
2017-10-28T04:02:40.257Z,3.93
2017-10-28T04:05:09.558Z,3.43
2017-10-28T04:07:38.814Z,3.20
2017-10-28T04:10:08.162Z,3.20
2017-10-28T04:12:42.274Z,3.50
2017-10-28T04:15:11.516Z,3.17
2017-10-28T04:17:40.758Z,3.43
2017-10-28T04:20:10.081Z,4.50
2017-10-28T04:22:39.799Z,3.10
2017-10-28T04:25:09.835Z,3.47
2017-10-28T04:27:39.200Z,3.57
2017-10-28T04:30:08.719Z,3.33
2017-10-28T04:32:38.015Z,5.60
2017-10-28T04:35:07.256Z,2.90
2017-10-28T04:37:36.645Z,3.13
2017-10-28T04:40:05.882Z,3.37
2017-10-28T04:42:35.242Z,2.40
2017-10-28T04:45:05.344Z,3.30
2017-10-28T04:47:34.595Z,2.80
2017-10-28T04:50:03.868Z,2.67
2017-10-28T04:52:33.131Z,2.70
2017-10-28T04:55:02.440Z,3.27
2017-10-28T04:57:31.722Z,2.83
2017-10-28T05:00:00.962Z,2.63
2017-10-28T05:02:30.991Z,2.07
2017-10-28T05:05:01.022Z,2.60
2017-10-28T05:07:30.307Z,2.03
2017-10-28T05:10:00.413Z,3.00
2017-10-28T05:12:30.432Z,2.43
2017-10-28T05:14:59.808Z,2.53
2017-10-28T05:17:29.045Z,3.10
2017-10-28T05:19:58.298Z,2.50
2017-10-28T05:22:27.753Z,2.80
2017-10-28T05:24:57.758Z,2.20
2017-10-28T05:27:27.018Z,2.63
2017-10-28T05:29:56.998Z,2.57
2017-10-28T05:32:26.482Z,2.60
2017-10-28T05:34:55.885Z,1.87
2017-10-28T05:37:25.915Z,2.53
2017-10-28T05:39:55.383Z,2.23
2017-10-28T05:42:24.592Z,2.30
2017-10-28T05:44:53.912Z,1.90
2017-10-28T05:47:23.932Z,3.07
2017-10-28T05:49:53.185Z,2.47
2017-10-28T05:52:22.426Z,3.03
2017-10-28T05:54:52.445Z,3.23
2017-10-28T05:57:21.846Z,2.10
2017-10-28T05:59:51.126Z,2.43
2017-10-28T06:02:20.375Z,2.30
2017-10-28T06:04:49.626Z,2.80
2017-10-28T06:07:19.054Z,2.10
2017-10-28T06:09:48.358Z,2.77
2017-10-28T06:12:18.363Z,2.43
2017-10-28T06:14:49.232Z,3.60
2017-10-28T06:17:18.627Z,3.13
2017-10-28T06:19:47.912Z,3.10
2017-10-28T06:22:17.317Z,2.60
2017-10-28T06:24:46.658Z,3.30
2017-10-28T06:27:15.916Z,2.80
2017-10-28T06:29:45.165Z,2.80
2017-10-28T06:32:14.402Z,2.83
2017-10-28T06:34:43.814Z,2.40
2017-10-28T06:37:13.055Z,3.10
2017-10-28T06:39:42.328Z,3.23
2017-10-28T06:42:11.730Z,3.27
2017-10-28T06:44:40.971Z,2.47
2017-10-28T06:47:10.219Z,3.30
2017-10-28T06:49:39.480Z,2.90
2017-10-28T06:52:08.723Z,3.30
2017-10-28T06:54:38.010Z,2.83
2017-10-28T06:57:07.279Z,2.93
2017-10-28T06:59:36.506Z,1.87
2017-10-28T07:02:05.758Z,3.20
2017-10-28T07:04:35.006Z,3.03
2017-10-28T07:07:04.339Z,2.83
2017-10-28T07:09:33.623Z,3.63
2017-10-28T07:12:02.899Z,3.40
2017-10-28T07:14:32.140Z,2.77
2017-10-28T07:17:01.422Z,2.90
2017-10-28T07:19:30.855Z,2.40
2017-10-28T07:22:00.107Z,4.50
2017-10-28T07:24:29.424Z,3.40
2017-10-28T07:26:58.879Z,4.60
2017-10-28T07:29:28.187Z,4.90
2017-10-28T07:31:57.430Z,5.17
2017-10-28T07:34:28.198Z,5.70
2017-10-28T07:36:57.466Z,4.90
2017-10-28T07:39:26.916Z,6.03
2017-10-28T07:41:56.185Z,5.03
2017-10-28T07:44:25.442Z,4.37
2017-10-28T07:46:54.788Z,4.47
2017-10-28T07:49:24.042Z,5.27
2017-10-28T07:51:53.352Z,4.70
2017-10-28T07:54:22.582Z,5.40
2017-10-28T07:56:52.028Z,4.00
2017-10-28T07:59:21.294Z,4.70
2017-10-28T08:01:50.623Z,3.70
2017-10-28T08:04:21.693Z,4.77
2017-10-28T08:06:50.948Z,4.07
2017-10-28T08:09:20.215Z,4.17
2017-10-28T08:11:49.470Z,4.10
2017-10-28T08:14:18.941Z,4.00
2017-10-28T08:16:48.978Z,4.33
2017-10-28T08:19:18.371Z,3.90
2017-10-28T08:21:48.414Z,3.67
2017-10-28T08:24:17.787Z,3.33
2017-10-28T08:26:47.939Z,3.80
2017-10-28T08:29:17.191Z,3.80
2017-10-28T08:31:46.468Z,4.10
2017-10-28T08:34:15.712Z,3.30
2017-10-28T08:36:45.763Z,3.87
2017-10-28T08:39:15.232Z,3.20
2017-10-28T08:41:44.566Z,3.40
2017-10-28T08:44:14.586Z,4.10
2017-10-28T08:46:43.834Z,3.93
2017-10-28T08:49:13.086Z,3.20
2017-10-28T08:51:42.386Z,3.20
2017-10-28T08:54:11.626Z,4.43
2017-10-28T08:56:40.890Z,3.30
2017-10-28T08:59:10.186Z,3.33
2017-10-28T09:01:39.570Z,3.47
2017-10-28T09:04:09.687Z,3.10
2017-10-28T09:06:38.977Z,3.67
2017-10-28T09:09:08.234Z,3.50
2017-10-28T09:11:37.488Z,4.27
2017-10-28T09:14:07.529Z,3.60
2017-10-28T09:16:37.541Z,3.30
2017-10-28T09:19:06.841Z,3.10
2017-10-28T09:21:36.091Z,3.93
2017-10-28T09:24:06.078Z,5.47
2017-10-28T09:26:35.441Z,3.80
2017-10-28T09:29:05.470Z,4.23
2017-10-28T09:31:34.730Z,3.43
2017-10-28T09:34:04.019Z,3.83
2017-10-28T09:36:33.414Z,3.80
2017-10-28T09:39:02.686Z,2.67
2017-10-28T09:41:31.946Z,3.57
2017-10-28T09:44:01.223Z,3.63
2017-10-28T09:46:30.471Z,3.90
2017-10-28T09:49:00.093Z,2.47
2017-10-28T09:51:29.361Z,3.57
2017-10-28T09:53:58.641Z,3.53
2017-10-28T09:56:27.920Z,4.30
2017-10-28T09:58:57.182Z,3.80
2017-10-28T10:01:27.223Z,3.43
2017-10-28T10:03:57.267Z,3.87
2017-10-28T10:06:26.951Z,3.77
2017-10-28T10:08:56.322Z,3.47
2017-10-28T10:11:25.911Z,3.93
2017-10-28T10:13:56.571Z,3.87
2017-10-28T10:16:25.942Z,3.97
2017-10-28T10:18:55.191Z,4.30
2017-10-28T10:21:24.594Z,4.10
2017-10-28T10:23:54.701Z,4.13
2017-10-28T10:26:24.757Z,5.43
2017-10-28T10:28:54.036Z,4.50
2017-10-28T10:31:23.278Z,5.50
2017-10-28T10:33:52.533Z,4.27
2017-10-28T10:36:22.650Z,4.73
2017-10-28T10:38:52.685Z,3.80
2017-10-28T10:41:21.933Z,4.53
2017-10-28T10:43:51.881Z,3.60
2017-10-28T10:46:21.291Z,4.67
2017-10-28T10:48:51.305Z,5.73
2017-10-28T10:51:20.575Z,4.57
2017-10-28T10:53:49.930Z,4.40
2017-10-28T10:56:19.182Z,4.80
2017-10-28T10:58:48.630Z,5.03
2017-10-28T11:01:18.646Z,5.00
2017-10-28T11:03:47.941Z,5.25
2017-10-28T11:06:17.231Z,4.47
2017-10-28T11:08:46.465Z,4.17
2017-10-28T11:11:15.709Z,4.20
2017-10-28T11:13:45.111Z,5.90
2017-10-28T11:16:14.399Z,4.60
2017-10-28T11:18:43.658Z,4.00
2017-10-28T11:21:13.907Z,4.57
2017-10-28T11:23:43.207Z,3.70
2017-10-28T11:26:12.464Z,4.00
2017-10-28T11:28:42.506Z,4.03
2017-10-28T11:31:11.818Z,5.20
2017-10-28T11:33:41.290Z,4.53
2017-10-28T11:36:11.342Z,4.57
2017-10-28T11:38:40.591Z,3.90
2017-10-28T11:41:09.912Z,4.53
2017-10-28T11:43:39.939Z,4.17
2017-10-28T11:46:10.000Z,4.70
2017-10-28T11:48:39.237Z,4.70
2017-10-28T11:51:08.501Z,4.40
2017-10-28T11:53:37.793Z,4.30
2017-10-28T11:56:07.049Z,4.20
2017-10-28T11:58:36.318Z,4.40
2017-10-28T12:01:05.715Z,3.30
2017-10-28T12:03:34.997Z,3.37
2017-10-28T12:06:04.243Z,4.03
2017-10-28T12:08:33.514Z,4.17
2017-10-28T12:11:02.786Z,4.27
2017-10-28T12:13:32.058Z,4.70
2017-10-28T12:16:01.331Z,4.00
2017-10-28T12:18:30.572Z,3.70
2017-10-28T12:21:00.579Z,3.80
2017-10-28T12:23:29.849Z,4.10
2017-10-28T12:25:59.097Z,3.63
2017-10-28T12:28:28.380Z,4.10
2017-10-28T12:30:58.404Z,5.47
2017-10-28T12:33:27.806Z,3.90
2017-10-28T12:35:57.831Z,4.10
2017-10-28T12:38:27.327Z,3.63
2017-10-28T12:40:57.349Z,3.70
2017-10-28T12:43:27.399Z,3.70
2017-10-28T12:45:56.646Z,3.77
2017-10-28T12:48:26.690Z,3.40
2017-10-28T12:50:56.722Z,3.63
2017-10-28T12:53:26.094Z,3.53
2017-10-28T12:55:56.239Z,3.33
2017-10-28T12:58:25.622Z,2.90
2017-10-28T13:00:54.871Z,4.47
2017-10-28T13:03:24.143Z,4.30
2017-10-28T13:05:54.146Z,3.50
2017-10-28T13:08:23.390Z,2.93
2017-10-28T13:10:52.663Z,3.53
2017-10-28T13:13:22.683Z,3.73
2017-10-28T13:15:51.948Z,5.00
2017-10-28T13:18:22.710Z,5.10
2017-10-28T13:20:51.990Z,5.37
2017-10-28T13:23:21.237Z,5.50
2017-10-28T13:25:50.508Z,3.40
2017-10-28T13:28:20.543Z,4.87
2017-10-28T13:30:49.935Z,3.93
2017-10-28T13:33:20.286Z,3.33
2017-10-28T13:35:49.534Z,3.60
2017-10-28T13:38:18.852Z,2.73
2017-10-28T13:40:49.063Z,3.10
2017-10-28T13:43:18.486Z,3.40
2017-10-28T13:45:48.511Z,3.70
2017-10-28T13:48:17.787Z,3.53
2017-10-28T13:50:47.050Z,3.20
2017-10-28T13:53:16.312Z,2.80
2017-10-28T13:55:47.132Z,2.97
2017-10-28T13:58:16.384Z,3.50
2017-10-28T14:00:45.654Z,3.83
2017-10-28T14:03:14.946Z,3.33
2017-10-28T14:05:44.971Z,3.00
2017-10-28T14:08:14.365Z,2.37
2017-10-28T14:10:44.370Z,2.30
2017-10-28T14:13:14.424Z,3.63
2017-10-28T14:15:43.692Z,2.67
2017-10-28T14:18:12.981Z,3.20
2017-10-28T14:20:42.400Z,2.60
2017-10-28T14:23:11.693Z,3.30
2017-10-28T14:25:40.989Z,2.80
2017-10-28T14:28:10.244Z,3.17
2017-10-28T14:30:39.546Z,3.30
2017-10-28T14:33:08.802Z,3.27
2017-10-28T14:35:38.223Z,5.33
2017-10-28T14:38:08.245Z,3.60
2017-10-28T14:40:38.260Z,2.97
2017-10-28T14:43:07.558Z,2.50
2017-10-28T14:45:36.970Z,2.87
2017-10-28T14:48:07.019Z,3.00
2017-10-28T14:50:36.267Z,2.43
2017-10-28T14:53:06.294Z,2.80
2017-10-28T14:55:36.400Z,2.17
2017-10-28T14:58:05.667Z,2.90
2017-10-28T15:00:34.947Z,4.30
2017-10-28T15:03:04.203Z,3.00
2017-10-28T15:05:34.218Z,2.60
2017-10-28T15:08:03.529Z,2.60
2017-10-28T15:10:32.791Z,3.03
2017-10-28T15:13:02.060Z,2.67
2017-10-28T15:15:31.337Z,2.57
2017-10-28T15:18:00.610Z,2.50
2017-10-28T15:20:29.863Z,3.87
2017-10-28T15:22:59.318Z,3.87
2017-10-28T15:25:28.647Z,13.03
2017-10-28T15:27:58.662Z,13.47
2017-10-28T15:30:27.982Z,14.47
2017-10-28T15:32:57.207Z,3.40
2017-10-28T15:35:26.460Z,8.10
2017-10-28T15:37:55.988Z,4.87
2017-10-28T15:40:26.008Z,3.93
2017-10-28T15:42:55.727Z,5.10
2017-10-28T15:45:26.495Z,3.43
2017-10-28T15:47:55.738Z,2.77
2017-10-28T15:50:25.111Z,3.00
2017-10-28T15:52:54.432Z,3.50
2017-10-28T15:55:23.704Z,2.70
2017-10-28T15:57:52.939Z,5.93
2017-10-28T16:00:22.207Z,3.57
2017-10-28T16:02:51.642Z,2.93
2017-10-28T16:05:21.769Z,3.53
2017-10-28T16:07:51.000Z,2.80
2017-10-28T16:10:20.251Z,2.63
2017-10-28T16:12:49.515Z,2.30
2017-10-28T16:15:19.789Z,2.77
2017-10-28T16:17:49.831Z,2.60
2017-10-28T16:20:19.831Z,2.10
2017-10-28T16:22:49.063Z,2.87
2017-10-28T16:25:18.314Z,3.00
2017-10-28T16:27:47.584Z,3.20
2017-10-28T16:30:16.828Z,2.10
2017-10-28T16:32:46.113Z,2.73
2017-10-28T16:35:15.358Z,3.00
2017-10-28T16:37:44.623Z,2.17
2017-10-28T16:40:13.955Z,2.57
2017-10-28T16:42:43.202Z,2.23
2017-10-28T16:45:12.500Z,2.23
2017-10-28T16:47:41.871Z,2.37
2017-10-28T16:50:11.135Z,2.47
2017-10-28T16:52:40.511Z,1.97
2017-10-28T16:55:10.523Z,2.87
2017-10-28T16:57:39.829Z,1.90
2017-10-28T17:00:09.318Z,2.60
2017-10-28T17:02:38.595Z,2.63
2017-10-28T17:05:07.875Z,3.17
2017-10-28T17:07:37.178Z,2.47
2017-10-28T17:10:06.639Z,3.30
2017-10-28T17:12:35.894Z,2.10
2017-10-28T17:15:05.367Z,2.73
2017-10-28T17:17:34.760Z,2.75
2017-10-28T17:20:04.062Z,2.40
2017-10-28T17:22:33.347Z,2.83
2017-10-28T17:25:02.612Z,2.40
2017-10-28T17:27:31.904Z,2.60
2017-10-28T17:30:01.143Z,3.07
2017-10-28T17:32:30.395Z,2.27
2017-10-28T17:34:59.696Z,2.43
2017-10-28T17:37:28.960Z,2.60
2017-10-28T17:39:58.266Z,2.37
2017-10-28T17:42:27.514Z,3.47
2017-10-28T17:44:56.794Z,2.00
2017-10-28T17:47:26.061Z,2.17
2017-10-28T17:49:55.396Z,2.90
2017-10-28T17:52:24.654Z,2.33
2017-10-28T17:54:53.908Z,2.93
2017-10-28T17:57:23.202Z,3.43
2017-10-28T17:59:52.453Z,3.10
2017-10-28T18:02:21.723Z,3.20
2017-10-28T18:04:50.967Z,3.50
2017-10-28T18:07:21.038Z,2.80
2017-10-28T18:09:50.275Z,2.30
2017-10-28T18:12:19.535Z,2.30
2017-10-28T18:14:48.809Z,3.40
2017-10-28T18:17:18.914Z,3.40
2017-10-28T18:19:48.947Z,3.80
2017-10-28T18:22:18.247Z,2.83
2017-10-28T18:24:47.522Z,3.03
2017-10-28T18:27:16.785Z,3.30
2017-10-28T18:29:46.050Z,3.30
2017-10-28T18:32:15.372Z,2.93
2017-10-28T18:34:44.646Z,3.07
2017-10-28T18:37:14.887Z,3.37
2017-10-28T18:39:44.175Z,3.13
2017-10-28T18:42:13.442Z,3.73
2017-10-28T18:44:42.804Z,3.83
2017-10-28T18:47:12.167Z,3.10
2017-10-28T18:49:41.440Z,3.57
2017-10-28T18:52:10.724Z,3.60
2017-10-28T18:54:40.011Z,3.47
2017-10-28T18:57:09.283Z,3.93
2017-10-28T18:59:38.542Z,3.30
2017-10-28T19:02:07.848Z,4.37
2017-10-28T19:04:37.126Z,3.50
2017-10-28T19:07:06.394Z,4.40
2017-10-28T19:09:35.640Z,4.00
2017-10-28T19:12:04.910Z,3.20
2017-10-28T19:14:34.150Z,3.70
2017-10-28T19:17:03.429Z,3.73
2017-10-28T19:19:33.450Z,3.47
2017-10-28T19:22:02.790Z,3.83
2017-10-28T19:24:32.139Z,6.00
2017-10-28T19:27:02.255Z,3.53
2017-10-28T19:29:32.307Z,3.70
2017-10-28T19:32:01.548Z,4.80
2017-10-28T19:34:30.806Z,4.80
2017-10-28T19:37:00.063Z,4.77
2017-10-28T19:39:29.363Z,4.27
2017-10-28T19:41:58.616Z,4.67
2017-10-28T19:44:27.864Z,5.10
2017-10-28T19:46:57.130Z,4.00
2017-10-28T19:49:26.403Z,6.63
2017-10-28T19:51:55.934Z,5.40
2017-10-28T19:54:25.197Z,8.50
2017-10-28T19:56:55.271Z,7.10
2017-10-28T19:59:24.509Z,4.70
2017-10-28T20:01:53.783Z,4.23
2017-10-28T20:04:24.696Z,5.20
2017-10-28T20:06:53.952Z,4.57
2017-10-28T20:09:23.346Z,5.80
2017-10-28T20:11:53.040Z,5.23
2017-10-28T20:14:22.263Z,4.90
2017-10-28T20:16:52.415Z,5.40
2017-10-28T20:19:21.682Z,4.30
2017-10-28T20:21:51.708Z,3.80
2017-10-28T20:24:20.948Z,6.93
2017-10-28T20:26:50.262Z,4.67
2017-10-28T20:29:19.481Z,7.10
2017-10-28T20:31:50.276Z,7.13
2017-10-28T20:34:19.534Z,10.03
2017-10-28T20:36:48.812Z,5.23
2017-10-28T20:39:18.106Z,4.53
2017-10-28T20:41:47.392Z,5.70
2017-10-28T20:44:16.679Z,14.03
2017-10-28T20:46:46.304Z,5.70
2017-10-28T20:49:15.549Z,4.77
2017-10-28T20:51:44.864Z,5.80
2017-10-28T20:54:14.258Z,3.63
2017-10-28T20:56:44.030Z,3.60
2017-10-28T20:59:13.253Z,3.30
2017-10-28T21:01:42.515Z,4.80
2017-10-28T21:04:11.908Z,4.00
2017-10-28T21:06:41.962Z,4.00
2017-10-28T21:09:11.203Z,3.50
2017-10-28T21:11:42.006Z,3.20
2017-10-28T21:14:11.244Z,3.80
2017-10-28T21:16:40.523Z,3.13
2017-10-28T21:19:09.761Z,5.60
2017-10-28T21:21:39.033Z,7.03
2017-10-28T21:24:08.313Z,3.10
2017-10-28T21:26:37.558Z,4.13
2017-10-28T21:29:06.854Z,3.27
2017-10-28T21:31:36.094Z,2.63
2017-10-28T21:34:05.343Z,2.30
2017-10-28T21:36:34.627Z,3.10
2017-10-28T21:39:03.867Z,1.93
2017-10-28T21:41:33.110Z,2.30
2017-10-28T21:44:02.375Z,2.40
2017-10-28T21:46:31.630Z,1.80
2017-10-28T21:49:00.917Z,2.50
2017-10-28T21:51:30.158Z,3.57
2017-10-28T21:53:59.504Z,1.60
2017-10-28T21:56:28.847Z,2.70
2017-10-28T21:58:58.122Z,2.60
2017-10-28T22:01:27.406Z,1.60
2017-10-28T22:03:56.660Z,1.60
2017-10-28T22:06:25.911Z,2.10
2017-10-28T22:08:55.235Z,2.13
2017-10-28T22:11:24.463Z,1.80
2017-10-28T22:13:53.752Z,2.40
2017-10-28T22:16:23.765Z,1.87
2017-10-28T22:18:53.075Z,1.97
2017-10-28T22:21:22.293Z,1.80
2017-10-28T22:23:51.554Z,2.03
2017-10-28T22:26:21.566Z,1.77
2017-10-28T22:28:50.807Z,1.50
2017-10-28T22:31:20.093Z,1.83
2017-10-28T22:33:49.358Z,1.77
2017-10-28T22:36:18.687Z,1.70
2017-10-28T22:38:48.726Z,1.50
2017-10-28T22:41:18.164Z,1.43
2017-10-28T22:43:47.470Z,1.50
2017-10-28T22:46:16.898Z,2.27
2017-10-28T22:48:46.135Z,1.57
2017-10-28T22:51:16.098Z,1.40
2017-10-28T22:53:45.379Z,1.40
2017-10-28T22:56:14.662Z,1.00
2017-10-28T22:58:43.883Z,1.40
2017-10-28T23:01:13.121Z,1.23
2017-10-28T23:03:43.143Z,1.30
2017-10-28T23:06:12.401Z,1.27
2017-10-28T23:08:41.692Z,1.20
2017-10-28T23:11:10.928Z,1.50
2017-10-28T23:13:40.222Z,1.23
2017-10-28T23:16:09.472Z,1.30
2017-10-28T23:18:38.734Z,1.30
2017-10-28T23:21:07.987Z,1.10
2017-10-28T23:23:37.231Z,1.20
2017-10-28T23:26:06.496Z,1.47
2017-10-28T23:28:35.850Z,1.53
2017-10-28T23:31:06.676Z,1.17
2017-10-28T23:33:35.954Z,1.60
2017-10-28T23:36:05.205Z,1.20
2017-10-28T23:38:34.476Z,1.40
2017-10-28T23:41:03.715Z,1.40
2017-10-28T23:43:32.949Z,1.00
2017-10-28T23:46:02.215Z,1.13
2017-10-28T23:48:31.458Z,1.07
2017-10-28T23:51:00.798Z,0.90
2017-10-28T23:53:30.903Z,1.00
2017-10-28T23:56:00.193Z,1.20
2017-10-28T23:58:29.589Z,0.80
